sensor_id;sensor_type;location;lat;lon;timestamp;temperature;humidity
47252;DHT22;32991;51.374;11.586;2022-12-28T00:01:16;3.30;99.90
47252;DHT22;32991;51.374;11.586;2022-12-28T00:03:43;3.30;99.90
47252;DHT22;32991;51.374;11.586;2022-12-28T00:06:10;3.30;99.90
47252;DHT22;32991;51.374;11.586;2022-12-28T00:08:37;3.30;99.90
47252;DHT22;32991;51.374;11.586;2022-12-28T00:11:05;3.30;99.90
47252;DHT22;32991;51.374;11.586;2022-12-28T00:13:39;3.30;99.90
47252;DHT22;32991;51.374;11.586;2022-12-28T00:16:07;3.20;99.90
47252;DHT22;32991;51.374;11.586;2022-12-28T00:18:34;3.20;99.90
47252;DHT22;32991;51.374;11.586;2022-12-28T00:21:02;3.20;99.90
47252;DHT22;32991;51.374;11.586;2022-12-28T00:23:29;3.10;99.90
47252;DHT22;32991;51.374;11.586;2022-12-28T00:26:04;3.00;99.90
47252;DHT22;32991;51.374;11.586;2022-12-28T00:28:30;3.00;99.90
47252;DHT22;32991;51.374;11.586;2022-12-28T00:30:57;2.90;99.90
47252;DHT22;32991;51.374;11.586;2022-12-28T00:33:24;2.80;99.90
47252;DHT22;32991;51.374;11.586;2022-12-28T00:35:54;2.80;99.90
47252;DHT22;32991;51.374;11.586;2022-12-28T00:38:21;2.70;99.90
47252;DHT22;32991;51.374;11.586;2022-12-28T00:40:48;2.70;99.90
47252;DHT22;32991;51.374;11.586;2022-12-28T00:43:14;2.80;99.90
47252;DHT22;32991;51.374;11.586;2022-12-28T00:45:45;2.80;99.90
47252;DHT22;32991;51.374;11.586;2022-12-28T00:48:12;2.70;99.90
47252;DHT22;32991;51.374;11.586;2022-12-28T00:50:39;2.70;99.90
47252;DHT22;32991;51.374;11.586;2022-12-28T00:53:08;2.70;99.90
47252;DHT22;32991;51.374;11.586;2022-12-28T00:55:35;2.70;99.90
47252;DHT22;32991;51.374;11.586;2022-12-28T00:58:04;2.80;99.90
47252;DHT22;32991;51.374;11.586;2022-12-28T01:00:31;2.90;99.90
47252;DHT22;32991;51.374;11.586;2022-12-28T01:02:58;3.00;99.90
47252;DHT22;32991;51.374;11.586;2022-12-28T01:05:25;3.00;99.90
47252;DHT22;32991;51.374;11.586;2022-12-28T01:07:52;3.10;99.90
47252;DHT22;32991;51.374;11.586;2022-12-28T01:10:18;3.20;99.90
47252;DHT22;32991;51.374;11.586;2022-12-28T01:12:45;3.20;99.90
47252;DHT22;32991;51.374;11.586;2022-12-28T01:15:12;3.30;99.90
47252;DHT22;32991;51.374;11.586;2022-12-28T01:17:39;3.30;99.90
47252;DHT22;32991;51.374;11.586;2022-12-28T01:20:06;3.40;99.90
47252;DHT22;32991;51.374;11.586;2022-12-28T01:22:33;3.40;99.90
47252;DHT22;32991;51.374;11.586;2022-12-28T01:25:00;3.50;99.90
47252;DHT22;32991;51.374;11.586;2022-12-28T01:27:27;3.60;99.90
47252;DHT22;32991;51.374;11.586;2022-12-28T01:29:54;3.60;99.90
47252;DHT22;32991;51.374;11.586;2022-12-28T01:32:20;3.50;99.90
47252;DHT22;32991;51.374;11.586;2022-12-28T01:34:47;3.60;99.90
47252;DHT22;32991;51.374;11.586;2022-12-28T01:37:14;3.60;99.90
47252;DHT22;32991;51.374;11.586;2022-12-28T01:39:41;3.60;99.90
47252;DHT22;32991;51.374;11.586;2022-12-28T01:42:15;3.60;99.90
47252;DHT22;32991;51.374;11.586;2022-12-28T01:44:46;3.60;99.90
47252;DHT22;32991;51.374;11.586;2022-12-28T01:47:23;3.60;99.90
47252;DHT22;32991;51.374;11.586;2022-12-28T01:49:58;3.60;99.90
47252;DHT22;32991;51.374;11.586;2022-12-28T01:55:00;3.60;99.90
47252;DHT22;32991;51.374;11.586;2022-12-28T01:57:29;3.60;99.90
47252;DHT22;32991;51.374;11.586;2022-12-28T01:59:59;3.70;99.90
47252;DHT22;32991;51.374;11.586;2022-12-28T02:02:27;3.60;99.90
47252;DHT22;32991;51.374;11.586;2022-12-28T02:04:56;3.60;99.90
47252;DHT22;32991;51.374;11.586;2022-12-28T02:10:09;3.50;99.90
47252;DHT22;32991;51.374;11.586;2022-12-28T02:12:56;3.50;99.90
47252;DHT22;32991;51.374;11.586;2022-12-28T02:15:26;3.50;99.90
47252;DHT22;32991;51.374;11.586;2022-12-28T02:17:52;3.40;99.90
47252;DHT22;32991;51.374;11.586;2022-12-28T02:20:19;3.50;99.90
47252;DHT22;32991;51.374;11.586;2022-12-28T02:22:59;3.40;99.90
47252;DHT22;32991;51.374;11.586;2022-12-28T02:28:17;3.30;99.90
47252;DHT22;32991;51.374;11.586;2022-12-28T02:30:53;3.30;99.90
47252;DHT22;32991;51.374;11.586;2022-12-28T02:33:26;3.30;99.90
47252;DHT22;32991;51.374;11.586;2022-12-28T02:36:00;3.40;99.90
47252;DHT22;32991;51.374;11.586;2022-12-28T02:40:59;3.50;99.90
47252;DHT22;32991;51.374;11.586;2022-12-28T02:43:27;3.50;99.90
47252;DHT22;32991;51.374;11.586;2022-12-28T02:45:53;3.50;99.90
47252;DHT22;32991;51.374;11.586;2022-12-28T02:48:44;3.50;99.90
47252;DHT22;32991;51.374;11.586;2022-12-28T02:51:42;3.40;99.90
47252;DHT22;32991;51.374;11.586;2022-12-28T02:54:20;3.40;99.90
47252;DHT22;32991;51.374;11.586;2022-12-28T02:57:14;3.50;99.90
47252;DHT22;32991;51.374;11.586;2022-12-28T02:59:53;3.50;99.90
47252;DHT22;32991;51.374;11.586;2022-12-28T03:04:54;3.50;99.90
47252;DHT22;32991;51.374;11.586;2022-12-28T03:10:46;3.40;99.90
47252;DHT22;32991;51.374;11.586;2022-12-28T03:16:07;3.40;99.90
47252;DHT22;32991;51.374;11.586;2022-12-28T03:18:36;3.30;99.90
47252;DHT22;32991;51.374;11.586;2022-12-28T03:21:25;3.40;99.90
47252;DHT22;32991;51.374;11.586;2022-12-28T03:24:12;3.30;99.90
47252;DHT22;32991;51.374;11.586;2022-12-28T03:26:59;3.20;99.90
47252;DHT22;32991;51.374;11.586;2022-12-28T03:30:06;3.20;99.90
47252;DHT22;32991;51.374;11.586;2022-12-28T03:32:52;3.20;99.90
47252;DHT22;32991;51.374;11.586;2022-12-28T03:35:19;3.20;99.90
47252;DHT22;32991;51.374;11.586;2022-12-28T03:37:59;3.20;99.90
47252;DHT22;32991;51.374;11.586;2022-12-28T03:42:59;3.10;99.90
47252;DHT22;32991;51.374;11.586;2022-12-28T03:45:59;3.10;99.90
47252;DHT22;32991;51.374;11.586;2022-12-28T03:48:28;3.20;99.90
47252;DHT22;32991;51.374;11.586;2022-12-28T03:50:57;3.20;99.90
47252;DHT22;32991;51.374;11.586;2022-12-28T03:53:26;3.20;99.90
47252;DHT22;32991;51.374;11.586;2022-12-28T03:58:33;3.20;99.90
47252;DHT22;32991;51.374;11.586;2022-12-28T04:01:02;3.20;99.90
47252;DHT22;32991;51.374;11.586;2022-12-28T04:03:29;3.20;99.90
47252;DHT22;32991;51.374;11.586;2022-12-28T04:05:56;3.20;99.90
47252;DHT22;32991;51.374;11.586;2022-12-28T04:08:23;3.20;99.90
47252;DHT22;32991;51.374;11.586;2022-12-28T04:10:51;3.30;99.90
47252;DHT22;32991;51.374;11.586;2022-12-28T04:13:18;3.30;99.90
47252;DHT22;32991;51.374;11.586;2022-12-28T04:15:55;3.30;99.90
47252;DHT22;32991;51.374;11.586;2022-12-28T04:18:22;3.40;99.90
47252;DHT22;32991;51.374;11.586;2022-12-28T04:20:49;3.40;99.90
47252;DHT22;32991;51.374;11.586;2022-12-28T04:23:16;3.50;99.90
47252;DHT22;32991;51.374;11.586;2022-12-28T04:25:43;3.50;99.90
47252;DHT22;32991;51.374;11.586;2022-12-28T04:28:10;3.50;99.90
47252;DHT22;32991;51.374;11.586;2022-12-28T04:30:57;3.50;99.90
47252;DHT22;32991;51.374;11.586;2022-12-28T04:33:24;3.60;99.90
47252;DHT22;32991;51.374;11.586;2022-12-28T04:35:51;3.60;99.90
47252;DHT22;32991;51.374;11.586;2022-12-28T04:38:18;3.70;99.90
47252;DHT22;32991;51.374;11.586;2022-12-28T04:40:46;3.80;99.90
47252;DHT22;32991;51.374;11.586;2022-12-28T04:43:13;3.80;99.90
47252;DHT22;32991;51.374;11.586;2022-12-28T04:45:39;3.80;99.90
47252;DHT22;32991;51.374;11.586;2022-12-28T04:48:06;3.80;99.90
47252;DHT22;32991;51.374;11.586;2022-12-28T04:50:33;3.80;99.90
47252;DHT22;32991;51.374;11.586;2022-12-28T04:53:01;3.90;99.90
47252;DHT22;32991;51.374;11.586;2022-12-28T04:55:28;3.90;99.90
47252;DHT22;32991;51.374;11.586;2022-12-28T04:57:59;3.90;99.90
47252;DHT22;32991;51.374;11.586;2022-12-28T05:00:26;3.90;99.90
47252;DHT22;32991;51.374;11.586;2022-12-28T05:02:53;3.90;99.90
47252;DHT22;32991;51.374;11.586;2022-12-28T05:05:19;3.90;99.90
47252;DHT22;32991;51.374;11.586;2022-12-28T05:07:46;4.00;99.90
47252;DHT22;32991;51.374;11.586;2022-12-28T05:10:13;4.00;99.90
47252;DHT22;32991;51.374;11.586;2022-12-28T05:12:39;3.90;99.90
47252;DHT22;32991;51.374;11.586;2022-12-28T05:15:06;3.90;99.90
47252;DHT22;32991;51.374;11.586;2022-12-28T05:17:33;3.90;99.90
47252;DHT22;32991;51.374;11.586;2022-12-28T05:20:00;4.00;99.90
47252;DHT22;32991;51.374;11.586;2022-12-28T05:22:27;4.00;99.90
47252;DHT22;32991;51.374;11.586;2022-12-28T05:24:54;3.90;99.90
47252;DHT22;32991;51.374;11.586;2022-12-28T05:27:21;4.00;99.90
47252;DHT22;32991;51.374;11.586;2022-12-28T05:29:47;4.00;99.90
47252;DHT22;32991;51.374;11.586;2022-12-28T05:32:14;4.00;99.90
47252;DHT22;32991;51.374;11.586;2022-12-28T05:34:41;4.10;99.90
47252;DHT22;32991;51.374;11.586;2022-12-28T05:37:08;4.20;99.90
47252;DHT22;32991;51.374;11.586;2022-12-28T05:39:34;4.20;99.90
47252;DHT22;32991;51.374;11.586;2022-12-28T05:42:01;4.20;99.90
47252;DHT22;32991;51.374;11.586;2022-12-28T05:44:28;4.20;99.90
47252;DHT22;32991;51.374;11.586;2022-12-28T05:46:55;4.30;99.90
47252;DHT22;32991;51.374;11.586;2022-12-28T05:49:21;4.20;99.90
47252;DHT22;32991;51.374;11.586;2022-12-28T05:51:48;4.40;99.90
47252;DHT22;32991;51.374;11.586;2022-12-28T05:54:17;4.40;99.90
47252;DHT22;32991;51.374;11.586;2022-12-28T05:56:44;4.40;99.90
47252;DHT22;32991;51.374;11.586;2022-12-28T05:59:11;4.50;99.90
47252;DHT22;32991;51.374;11.586;2022-12-28T06:01:39;4.50;99.90
47252;DHT22;32991;51.374;11.586;2022-12-28T06:04:09;4.50;99.90
47252;DHT22;32991;51.374;11.586;2022-12-28T06:06:37;4.60;99.90
47252;DHT22;32991;51.374;11.586;2022-12-28T06:09:04;4.60;99.90
47252;DHT22;32991;51.374;11.586;2022-12-28T06:11:31;4.60;99.90
47252;DHT22;32991;51.374;11.586;2022-12-28T06:13:58;4.60;99.90
47252;DHT22;32991;51.374;11.586;2022-12-28T06:16:26;4.60;99.90
47252;DHT22;32991;51.374;11.586;2022-12-28T06:18:54;4.60;99.90
47252;DHT22;32991;51.374;11.586;2022-12-28T06:21:21;4.60;99.90
47252;DHT22;32991;51.374;11.586;2022-12-28T06:23:49;4.60;99.90
47252;DHT22;32991;51.374;11.586;2022-12-28T06:26:17;4.70;99.90
47252;DHT22;32991;51.374;11.586;2022-12-28T06:28:45;4.70;99.90
47252;DHT22;32991;51.374;11.586;2022-12-28T06:31:13;4.70;99.90
47252;DHT22;32991;51.374;11.586;2022-12-28T06:33:40;4.70;99.90
47252;DHT22;32991;51.374;11.586;2022-12-28T06:36:11;4.70;99.90
47252;DHT22;32991;51.374;11.586;2022-12-28T06:38:46;4.70;99.90
47252;DHT22;32991;51.374;11.586;2022-12-28T06:41:13;4.80;99.90
47252;DHT22;32991;51.374;11.586;2022-12-28T06:43:41;4.80;99.90
47252;DHT22;32991;51.374;11.586;2022-12-28T06:46:08;4.80;99.90
47252;DHT22;32991;51.374;11.586;2022-12-28T06:48:35;4.80;99.90
47252;DHT22;32991;51.374;11.586;2022-12-28T06:51:03;4.70;99.90
47252;DHT22;32991;51.374;11.586;2022-12-28T06:53:31;4.80;99.90
47252;DHT22;32991;51.374;11.586;2022-12-28T06:56:05;4.70;99.90
47252;DHT22;32991;51.374;11.586;2022-12-28T06:58:32;4.70;99.90
47252;DHT22;32991;51.374;11.586;2022-12-28T07:01:06;4.70;99.90
47252;DHT22;32991;51.374;11.586;2022-12-28T07:03:34;4.60;99.90
47252;DHT22;32991;51.374;11.586;2022-12-28T07:06:01;4.60;99.90
47252;DHT22;32991;51.374;11.586;2022-12-28T07:08:28;4.60;99.90
47252;DHT22;32991;51.374;11.586;2022-12-28T07:11:00;4.60;99.90
47252;DHT22;32991;51.374;11.586;2022-12-28T07:13:27;4.70;99.90
47252;DHT22;32991;51.374;11.586;2022-12-28T07:15:54;4.70;99.90
47252;DHT22;32991;51.374;11.586;2022-12-28T07:18:20;4.70;99.90
47252;DHT22;32991;51.374;11.586;2022-12-28T07:20:47;4.70;99.90
47252;DHT22;32991;51.374;11.586;2022-12-28T07:23:14;4.80;99.90
47252;DHT22;32991;51.374;11.586;2022-12-28T07:25:42;4.80;99.90
47252;DHT22;32991;51.374;11.586;2022-12-28T07:28:08;4.80;99.90
47252;DHT22;32991;51.374;11.586;2022-12-28T07:30:35;4.80;99.90
47252;DHT22;32991;51.374;11.586;2022-12-28T07:33:02;4.90;99.90
47252;DHT22;32991;51.374;11.586;2022-12-28T07:35:29;4.90;99.90
47252;DHT22;32991;51.374;11.586;2022-12-28T07:37:56;4.90;99.90
47252;DHT22;32991;51.374;11.586;2022-12-28T07:40:23;4.90;99.90
47252;DHT22;32991;51.374;11.586;2022-12-28T07:42:49;4.90;99.90
47252;DHT22;32991;51.374;11.586;2022-12-28T07:45:16;5.00;99.90
47252;DHT22;32991;51.374;11.586;2022-12-28T07:47:43;5.00;99.90
47252;DHT22;32991;51.374;11.586;2022-12-28T07:50:09;5.10;99.90
47252;DHT22;32991;51.374;11.586;2022-12-28T07:52:36;5.20;99.90
47252;DHT22;32991;51.374;11.586;2022-12-28T07:55:03;5.20;99.90
47252;DHT22;32991;51.374;11.586;2022-12-28T07:57:30;5.20;99.90
47252;DHT22;32991;51.374;11.586;2022-12-28T07:59:57;5.20;99.90
47252;DHT22;32991;51.374;11.586;2022-12-28T08:02:23;5.20;99.90
47252;DHT22;32991;51.374;11.586;2022-12-28T08:04:50;5.20;99.90
47252;DHT22;32991;51.374;11.586;2022-12-28T08:07:18;5.30;99.90
47252;DHT22;32991;51.374;11.586;2022-12-28T08:09:44;5.30;99.90
47252;DHT22;32991;51.374;11.586;2022-12-28T08:12:11;5.40;99.90
47252;DHT22;32991;51.374;11.586;2022-12-28T08:14:38;5.50;99.90
47252;DHT22;32991;51.374;11.586;2022-12-28T08:17:04;5.50;99.90
47252;DHT22;32991;51.374;11.586;2022-12-28T08:19:31;5.60;99.90
47252;DHT22;32991;51.374;11.586;2022-12-28T08:21:58;5.60;99.90
47252;DHT22;32991;51.374;11.586;2022-12-28T08:24:25;5.70;99.90
47252;DHT22;32991;51.374;11.586;2022-12-28T08:26:51;5.70;99.90
47252;DHT22;32991;51.374;11.586;2022-12-28T08:29:19;5.80;99.90
47252;DHT22;32991;51.374;11.586;2022-12-28T08:31:47;6.00;99.90
47252;DHT22;32991;51.374;11.586;2022-12-28T08:34:17;6.10;99.90
47252;DHT22;32991;51.374;11.586;2022-12-28T08:36:44;6.20;99.90
47252;DHT22;32991;51.374;11.586;2022-12-28T08:39:11;6.40;99.90
47252;DHT22;32991;51.374;11.586;2022-12-28T08:41:38;6.50;99.90
47252;DHT22;32991;51.374;11.586;2022-12-28T08:44:04;6.60;99.90
47252;DHT22;32991;51.374;11.586;2022-12-28T08:46:32;6.60;99.90
47252;DHT22;32991;51.374;11.586;2022-12-28T08:49:00;6.70;99.90
47252;DHT22;32991;51.374;11.586;2022-12-28T08:51:29;6.70;99.90
47252;DHT22;32991;51.374;11.586;2022-12-28T08:53:56;6.80;99.90
47252;DHT22;32991;51.374;11.586;2022-12-28T08:56:31;6.90;99.90
47252;DHT22;32991;51.374;11.586;2022-12-28T08:58:58;7.00;99.90
47252;DHT22;32991;51.374;11.586;2022-12-28T09:01:26;7.00;99.90
47252;DHT22;32991;51.374;11.586;2022-12-28T09:03:55;7.00;99.90
47252;DHT22;32991;51.374;11.586;2022-12-28T09:06:23;7.00;99.90
47252;DHT22;32991;51.374;11.586;2022-12-28T09:08:51;7.00;99.90
47252;DHT22;32991;51.374;11.586;2022-12-28T09:11:34;7.00;99.90
47252;DHT22;32991;51.374;11.586;2022-12-28T09:14:01;7.00;99.90
47252;DHT22;32991;51.374;11.586;2022-12-28T09:16:28;7.00;99.90
47252;DHT22;32991;51.374;11.586;2022-12-28T09:18:56;7.00;99.90
47252;DHT22;32991;51.374;11.586;2022-12-28T09:21:24;6.90;99.90
47252;DHT22;32991;51.374;11.586;2022-12-28T09:23:51;7.00;99.90
47252;DHT22;32991;51.374;11.586;2022-12-28T09:26:19;7.00;99.90
47252;DHT22;32991;51.374;11.586;2022-12-28T09:28:49;7.10;99.90
47252;DHT22;32991;51.374;11.586;2022-12-28T09:31:17;7.10;99.90
47252;DHT22;32991;51.374;11.586;2022-12-28T09:33:44;7.20;99.90
47252;DHT22;32991;51.374;11.586;2022-12-28T09:36:46;7.20;99.90
47252;DHT22;32991;51.374;11.586;2022-12-28T09:39:17;7.40;99.90
47252;DHT22;32991;51.374;11.586;2022-12-28T09:41:52;7.40;99.90
47252;DHT22;32991;51.374;11.586;2022-12-28T09:44:44;7.40;99.90
47252;DHT22;32991;51.374;11.586;2022-12-28T09:49:46;7.50;99.90
47252;DHT22;32991;51.374;11.586;2022-12-28T09:52:22;7.60;99.90
47252;DHT22;32991;51.374;11.586;2022-12-28T09:54:50;7.60;99.90
47252;DHT22;32991;51.374;11.586;2022-12-28T09:57:17;7.80;99.90
47252;DHT22;32991;51.374;11.586;2022-12-28T10:00:03;7.80;99.90
47252;DHT22;32991;51.374;11.586;2022-12-28T10:02:33;7.80;99.90
47252;DHT22;32991;51.374;11.586;2022-12-28T10:05:02;7.70;99.90
47252;DHT22;32991;51.374;11.586;2022-12-28T10:07:29;7.70;99.90
47252;DHT22;32991;51.374;11.586;2022-12-28T10:09:57;7.70;99.90
47252;DHT22;32991;51.374;11.586;2022-12-28T10:12:23;7.70;99.90
47252;DHT22;32991;51.374;11.586;2022-12-28T10:14:50;7.70;99.90
47252;DHT22;32991;51.374;11.586;2022-12-28T10:17:19;7.70;99.90
47252;DHT22;32991;51.374;11.586;2022-12-28T10:19:48;7.70;99.90
47252;DHT22;32991;51.374;11.586;2022-12-28T10:22:16;7.70;99.90
47252;DHT22;32991;51.374;11.586;2022-12-28T10:24:44;7.80;99.90
47252;DHT22;32991;51.374;11.586;2022-12-28T10:27:21;7.70;99.90
47252;DHT22;32991;51.374;11.586;2022-12-28T10:29:51;7.70;99.90
47252;DHT22;32991;51.374;11.586;2022-12-28T10:32:18;7.60;99.90
47252;DHT22;32991;51.374;11.586;2022-12-28T10:34:55;7.70;99.90
47252;DHT22;32991;51.374;11.586;2022-12-28T10:37:22;7.70;99.90
47252;DHT22;32991;51.374;11.586;2022-12-28T10:39:54;7.70;99.90
47252;DHT22;32991;51.374;11.586;2022-12-28T10:44:50;7.80;99.90
47252;DHT22;32991;51.374;11.586;2022-12-28T10:47:28;7.80;99.90
47252;DHT22;32991;51.374;11.586;2022-12-28T10:49:56;7.80;99.90
47252;DHT22;32991;51.374;11.586;2022-12-28T10:52:43;7.70;99.90
47252;DHT22;32991;51.374;11.586;2022-12-28T10:55:27;7.60;99.90
47252;DHT22;32991;51.374;11.586;2022-12-28T10:57:55;7.60;99.90
47252;DHT22;32991;51.374;11.586;2022-12-28T11:00:41;7.50;99.90
47252;DHT22;32991;51.374;11.586;2022-12-28T11:03:18;7.30;99.90
47252;DHT22;32991;51.374;11.586;2022-12-28T11:05:49;7.10;99.90
47252;DHT22;32991;51.374;11.586;2022-12-28T11:08:23;7.00;99.90
47252;DHT22;32991;51.374;11.586;2022-12-28T11:10:55;7.00;99.90
47252;DHT22;32991;51.374;11.586;2022-12-28T11:13:22;7.00;99.90
47252;DHT22;32991;51.374;11.586;2022-12-28T11:15:49;7.00;99.90
47252;DHT22;32991;51.374;11.586;2022-12-28T11:18:16;7.10;99.90
47252;DHT22;32991;51.374;11.586;2022-12-28T11:20:44;7.20;99.90
47252;DHT22;32991;51.374;11.586;2022-12-28T11:23:18;7.30;99.90
47252;DHT22;32991;51.374;11.586;2022-12-28T11:25:46;7.50;99.90
47252;DHT22;32991;51.374;11.586;2022-12-28T11:28:14;7.60;99.90
47252;DHT22;32991;51.374;11.586;2022-12-28T11:30:42;7.70;99.90
47252;DHT22;32991;51.374;11.586;2022-12-28T11:35:52;7.90;99.90
47252;DHT22;32991;51.374;11.586;2022-12-28T11:38:35;8.00;99.90
47252;DHT22;32991;51.374;11.586;2022-12-28T11:41:02;8.10;99.90
47252;DHT22;32991;51.374;11.586;2022-12-28T11:46:41;8.40;99.90
47252;DHT22;32991;51.374;11.586;2022-12-28T11:51:16;8.40;99.90
47252;DHT22;32991;51.374;11.586;2022-12-28T11:56:11;8.30;99.90
47252;DHT22;32991;51.374;11.586;2022-12-28T12:01:07;8.20;99.90
47252;DHT22;32991;51.374;11.586;2022-12-28T12:06:19;8.10;99.90
47252;DHT22;32991;51.374;11.586;2022-12-28T12:08:54;8.10;99.90
47252;DHT22;32991;51.374;11.586;2022-12-28T12:13:50;8.00;99.90
47252;DHT22;32991;51.374;11.586;2022-12-28T12:16:32;8.00;99.90
47252;DHT22;32991;51.374;11.586;2022-12-28T12:19:01;8.10;99.90
47252;DHT22;32991;51.374;11.586;2022-12-28T12:21:47;8.00;99.90
47252;DHT22;32991;51.374;11.586;2022-12-28T12:24:22;8.00;99.90
47252;DHT22;32991;51.374;11.586;2022-12-28T12:26:54;8.00;99.90
47252;DHT22;32991;51.374;11.586;2022-12-28T12:29:31;7.90;99.90
47252;DHT22;32991;51.374;11.586;2022-12-28T12:32:03;8.00;99.90
47252;DHT22;32991;51.374;11.586;2022-12-28T12:37:36;7.90;99.90
47252;DHT22;32991;51.374;11.586;2022-12-28T12:40:13;8.10;99.90
47252;DHT22;32991;51.374;11.586;2022-12-28T12:48:14;8.20;99.90
47252;DHT22;32991;51.374;11.586;2022-12-28T12:50:52;8.10;99.90
47252;DHT22;32991;51.374;11.586;2022-12-28T12:56:24;7.90;99.90
47252;DHT22;32991;51.374;11.586;2022-12-28T12:59:10;7.90;99.90
47252;DHT22;32991;51.374;11.586;2022-12-28T13:01:52;7.80;99.90
47252;DHT22;32991;51.374;11.586;2022-12-28T13:04:23;7.90;99.90
47252;DHT22;32991;51.374;11.586;2022-12-28T13:06:53;7.90;99.90
47252;DHT22;32991;51.374;11.586;2022-12-28T13:09:21;7.90;99.90
47252;DHT22;32991;51.374;11.586;2022-12-28T13:11:49;7.90;99.90
47252;DHT22;32991;51.374;11.586;2022-12-28T13:14:16;7.90;99.90
47252;DHT22;32991;51.374;11.586;2022-12-28T13:16:46;7.90;99.90
47252;DHT22;32991;51.374;11.586;2022-12-28T13:19:17;7.90;99.90
47252;DHT22;32991;51.374;11.586;2022-12-28T13:21:45;7.90;99.90
47252;DHT22;32991;51.374;11.586;2022-12-28T13:24:18;7.90;99.90
47252;DHT22;32991;51.374;11.586;2022-12-28T13:26:45;7.90;99.90
47252;DHT22;32991;51.374;11.586;2022-12-28T13:29:12;7.90;99.90
47252;DHT22;32991;51.374;11.586;2022-12-28T13:31:40;7.90;99.90
47252;DHT22;32991;51.374;11.586;2022-12-28T13:34:24;7.90;99.90
47252;DHT22;32991;51.374;11.586;2022-12-28T13:36:52;7.80;99.90
47252;DHT22;32991;51.374;11.586;2022-12-28T13:39:20;7.80;99.90
47252;DHT22;32991;51.374;11.586;2022-12-28T13:41:51;7.80;99.90
47252;DHT22;32991;51.374;11.586;2022-12-28T13:44:36;7.90;99.90
47252;DHT22;32991;51.374;11.586;2022-12-28T13:49:33;7.90;99.90
47252;DHT22;32991;51.374;11.586;2022-12-28T13:52:05;7.80;99.90
47252;DHT22;32991;51.374;11.586;2022-12-28T13:54:32;7.80;99.90
47252;DHT22;32991;51.374;11.586;2022-12-28T13:56:59;7.70;99.90
47252;DHT22;32991;51.374;11.586;2022-12-28T13:59:46;7.70;99.90
47252;DHT22;32991;51.374;11.586;2022-12-28T14:02:14;7.70;99.90
47252;DHT22;32991;51.374;11.586;2022-12-28T14:04:42;7.70;99.90
47252;DHT22;32991;51.374;11.586;2022-12-28T14:07:18;7.60;99.90
47252;DHT22;32991;51.374;11.586;2022-12-28T14:09:45;7.60;99.90
47252;DHT22;32991;51.374;11.586;2022-12-28T14:12:13;7.60;99.90
47252;DHT22;32991;51.374;11.586;2022-12-28T14:14:39;7.60;99.90
47252;DHT22;32991;51.374;11.586;2022-12-28T14:17:07;7.60;99.90
47252;DHT22;32991;51.374;11.586;2022-12-28T14:19:35;7.50;99.90
47252;DHT22;32991;51.374;11.586;2022-12-28T14:22:02;7.50;99.90
47252;DHT22;32991;51.374;11.586;2022-12-28T14:24:56;7.40;99.90
47252;DHT22;32991;51.374;11.586;2022-12-28T14:27:23;7.40;99.90
47252;DHT22;32991;51.374;11.586;2022-12-28T14:29:50;7.40;99.90
47252;DHT22;32991;51.374;11.586;2022-12-28T14:32:16;7.40;99.90
47252;DHT22;32991;51.374;11.586;2022-12-28T14:34:43;7.40;99.90
47252;DHT22;32991;51.374;11.586;2022-12-28T14:40:10;7.40;99.90
47252;DHT22;32991;51.374;11.586;2022-12-28T14:42:46;7.40;99.90
47252;DHT22;32991;51.374;11.586;2022-12-28T14:45:48;7.50;99.90
47252;DHT22;32991;51.374;11.586;2022-12-28T14:48:37;7.50;99.90
47252;DHT22;32991;51.374;11.586;2022-12-28T14:53:43;7.50;99.90
47252;DHT22;32991;51.374;11.586;2022-12-28T14:56:13;7.50;99.90
47252;DHT22;32991;51.374;11.586;2022-12-28T14:58:47;7.50;99.90
47252;DHT22;32991;51.374;11.586;2022-12-28T15:01:17;7.50;99.90
47252;DHT22;32991;51.374;11.586;2022-12-28T15:03:54;7.50;99.90
47252;DHT22;32991;51.374;11.586;2022-12-28T15:06:21;7.50;99.90
47252;DHT22;32991;51.374;11.586;2022-12-28T15:08:52;7.50;99.90
47252;DHT22;32991;51.374;11.586;2022-12-28T15:11:19;7.50;99.90
47252;DHT22;32991;51.374;11.586;2022-12-28T15:13:47;7.50;99.90
47252;DHT22;32991;51.374;11.586;2022-12-28T15:16:14;7.50;99.90
47252;DHT22;32991;51.374;11.586;2022-12-28T15:18:43;7.50;99.90
47252;DHT22;32991;51.374;11.586;2022-12-28T15:21:11;7.50;99.90
47252;DHT22;32991;51.374;11.586;2022-12-28T15:23:38;7.50;99.90
47252;DHT22;32991;51.374;11.586;2022-12-28T15:26:09;7.50;99.90
47252;DHT22;32991;51.374;11.586;2022-12-28T15:28:36;7.50;99.90
47252;DHT22;32991;51.374;11.586;2022-12-28T15:31:04;7.50;99.90
47252;DHT22;32991;51.374;11.586;2022-12-28T15:33:33;7.50;99.90
47252;DHT22;32991;51.374;11.586;2022-12-28T15:36:01;7.50;99.90
47252;DHT22;32991;51.374;11.586;2022-12-28T15:38:28;7.50;99.90
47252;DHT22;32991;51.374;11.586;2022-12-28T15:40:54;7.60;99.90
47252;DHT22;32991;51.374;11.586;2022-12-28T15:43:21;7.60;99.90
47252;DHT22;32991;51.374;11.586;2022-12-28T15:45:55;7.60;99.90
47252;DHT22;32991;51.374;11.586;2022-12-28T15:48:21;7.60;99.90
47252;DHT22;32991;51.374;11.586;2022-12-28T15:50:48;7.50;99.90
47252;DHT22;32991;51.374;11.586;2022-12-28T15:53:15;7.50;99.90
47252;DHT22;32991;51.374;11.586;2022-12-28T15:55:42;7.50;99.90
47252;DHT22;32991;51.374;11.586;2022-12-28T15:58:09;7.50;99.90
47252;DHT22;32991;51.374;11.586;2022-12-28T16:00:36;7.50;99.90
47252;DHT22;32991;51.374;11.586;2022-12-28T16:03:09;7.40;99.90
47252;DHT22;32991;51.374;11.586;2022-12-28T16:05:36;7.50;99.90
47252;DHT22;32991;51.374;11.586;2022-12-28T16:08:03;7.50;99.90
47252;DHT22;32991;51.374;11.586;2022-12-28T16:10:29;7.40;99.90
47252;DHT22;32991;51.374;11.586;2022-12-28T16:12:56;7.40;99.90
47252;DHT22;32991;51.374;11.586;2022-12-28T16:15:23;7.40;99.90
47252;DHT22;32991;51.374;11.586;2022-12-28T16:17:50;7.40;99.90
47252;DHT22;32991;51.374;11.586;2022-12-28T16:20:23;7.40;99.90
47252;DHT22;32991;51.374;11.586;2022-12-28T16:22:50;7.30;99.90
47252;DHT22;32991;51.374;11.586;2022-12-28T16:25:19;7.30;99.90
47252;DHT22;32991;51.374;11.586;2022-12-28T16:27:46;7.30;99.90
47252;DHT22;32991;51.374;11.586;2022-12-28T16:30:12;7.40;99.90
47252;DHT22;32991;51.374;11.586;2022-12-28T16:32:39;7.40;99.90
47252;DHT22;32991;51.374;11.586;2022-12-28T16:35:06;7.40;99.90
47252;DHT22;32991;51.374;11.586;2022-12-28T16:37:33;7.40;99.90
47252;DHT22;32991;51.374;11.586;2022-12-28T16:40:00;7.40;99.90
47252;DHT22;32991;51.374;11.586;2022-12-28T16:42:27;7.40;99.90
47252;DHT22;32991;51.374;11.586;2022-12-28T16:44:53;7.40;99.90
47252;DHT22;32991;51.374;11.586;2022-12-28T16:47:20;7.40;99.90
47252;DHT22;32991;51.374;11.586;2022-12-28T16:49:47;7.50;99.90
47252;DHT22;32991;51.374;11.586;2022-12-28T16:52:13;7.50;99.90
47252;DHT22;32991;51.374;11.586;2022-12-28T16:54:40;7.50;99.90